createdAt,value
2018-03-11T15:20:11.314Z,16.00
2018-03-11T15:22:38.823Z,16.00
2018-03-11T15:25:07.120Z,16.00
2018-03-11T15:27:34.856Z,15.90
2018-03-11T15:30:03.187Z,15.90
2018-03-11T15:32:30.731Z,15.90
2018-03-11T15:34:58.227Z,15.90
2018-03-11T15:37:26.052Z,15.80
2018-03-11T15:39:54.436Z,15.70
2018-03-11T15:42:22.072Z,15.70
2018-03-11T15:44:48.651Z,15.70
2018-03-11T15:47:15.323Z,15.70
2018-03-11T15:49:42.452Z,15.60
2018-03-11T15:52:08.951Z,15.60
2018-03-11T15:54:35.465Z,15.60
2018-03-11T15:57:01.923Z,15.60
2018-03-11T15:59:29.169Z,15.50
2018-03-11T16:01:55.623Z,15.60
2018-03-11T16:04:22.353Z,15.60
2018-03-11T16:06:48.626Z,15.70
2018-03-11T16:09:14.903Z,15.80
2018-03-11T16:11:41.210Z,15.90
2018-03-11T16:14:08.263Z,15.90
2018-03-11T16:16:34.707Z,15.90
2018-03-11T16:19:00.998Z,16.00
2018-03-11T16:21:28.108Z,15.90
2018-03-11T16:23:54.404Z,15.90
2018-03-11T16:26:20.771Z,15.90
2018-03-11T16:28:47.184Z,15.80
2018-03-11T16:31:13.519Z,15.70
2018-03-11T16:33:40.052Z,15.70
2018-03-11T16:36:06.574Z,15.50
2018-03-11T16:38:32.906Z,15.50
2018-03-11T16:40:59.360Z,15.30
2018-03-11T16:43:25.703Z,15.20
2018-03-11T16:47:34.360Z,15.00
2018-03-11T16:50:08.315Z,14.80
2018-03-11T16:52:40.795Z,14.80
2018-03-11T16:56:08.822Z,14.60
2018-03-11T16:58:42.173Z,14.60
2018-03-11T17:01:14.817Z,14.60
2018-03-11T17:03:48.556Z,14.50
2018-03-11T17:06:21.551Z,14.40
2018-03-11T17:08:54.138Z,14.40
2018-03-11T17:11:26.676Z,14.30
2018-03-11T17:13:59.886Z,14.20
2018-03-11T17:16:33.397Z,14.10
2018-03-11T17:19:05.916Z,14.10
2018-03-11T17:21:38.981Z,14.00
2018-03-11T17:24:11.702Z,14.00
2018-03-11T17:26:44.214Z,14.00
2018-03-11T17:29:16.936Z,14.00
2018-03-11T17:31:50.958Z,13.90
2018-03-11T17:34:23.513Z,13.90
2018-03-11T17:36:57.094Z,13.80
2018-03-11T17:39:29.762Z,13.70
2018-03-11T17:42:02.300Z,13.60
2018-03-11T17:44:34.962Z,13.50
2018-03-11T17:47:07.519Z,13.40
2018-03-11T17:49:40.038Z,13.30
2018-03-11T17:52:12.628Z,13.20
2018-03-11T17:54:46.174Z,13.00
2018-03-11T17:57:12.753Z,12.90
2018-03-11T17:59:39.117Z,12.80
2018-03-11T18:02:05.497Z,12.70
2018-03-11T18:04:33.143Z,12.50
2018-03-11T18:06:59.715Z,12.50
2018-03-11T18:09:26.332Z,12.40
2018-03-11T18:11:53.407Z,12.20
2018-03-11T18:14:20.386Z,12.20
2018-03-11T18:16:46.744Z,12.10
2018-03-11T18:19:13.356Z,12.00
2018-03-11T18:21:39.680Z,12.00
2018-03-11T18:24:06.019Z,11.90
2018-03-11T18:26:32.371Z,11.80
2018-03-11T18:28:58.693Z,11.80
2018-03-11T18:31:32.154Z,11.70
2018-03-11T18:33:58.572Z,11.70
2018-03-11T18:36:25.804Z,11.60
2018-03-11T18:38:52.897Z,11.50
2018-03-11T18:41:19.404Z,11.50
2018-03-11T18:43:45.837Z,11.50
2018-03-11T18:46:12.241Z,11.40
2018-03-11T18:48:39.358Z,11.30
2018-03-11T18:51:05.884Z,11.30
2018-03-11T18:53:32.362Z,11.30
2018-03-11T18:55:59.132Z,11.20
2018-03-11T19:00:25.489Z,11.10
2018-03-11T19:02:52.837Z,11.10
2018-03-11T19:05:19.176Z,11.00
2018-03-11T19:07:46.218Z,11.00
2018-03-11T19:10:12.591Z,11.00
2018-03-11T19:12:40.014Z,10.90
2018-03-11T19:17:38.729Z,10.80
2018-03-11T19:20:05.241Z,10.80
2018-03-11T19:22:31.766Z,10.80
2018-03-11T19:24:58.313Z,10.80
2018-03-11T19:27:25.353Z,10.70
2018-03-11T19:29:52.197Z,10.70
2018-03-11T19:32:29.745Z,10.70
2018-03-11T19:34:57.091Z,10.70
2018-03-11T19:37:23.829Z,10.70
2018-03-11T19:39:51.761Z,10.70
2018-03-11T19:42:19.380Z,10.60
2018-03-11T19:44:46.654Z,10.60
2018-03-11T19:47:13.353Z,10.60
2018-03-11T19:49:41.692Z,10.50
2018-03-11T19:52:08.832Z,10.50
2018-03-11T19:54:35.470Z,10.50
2018-03-11T19:57:01.920Z,10.40
2018-03-11T19:59:30.198Z,10.40
2018-03-11T20:01:57.333Z,10.40
2018-03-11T20:04:23.790Z,10.30
2018-03-11T20:06:50.575Z,10.30
2018-03-11T20:09:17.282Z,10.30
2018-03-11T20:11:50.813Z,10.30
2018-03-11T20:14:23.609Z,10.20
2018-03-11T20:16:56.822Z,10.20
2018-03-11T20:19:30.322Z,10.20
2018-03-11T20:22:03.412Z,10.20
2018-03-11T20:24:36.333Z,10.20
2018-03-11T20:27:10.097Z,10.20
2018-03-11T20:29:42.996Z,10.10
2018-03-11T20:32:16.700Z,10.20
2018-03-11T20:34:50.196Z,10.20
2018-03-11T20:37:23.077Z,10.20
2018-03-11T20:39:55.779Z,10.20
2018-03-11T20:42:28.684Z,10.20
2018-03-11T20:45:01.333Z,10.20
2018-03-11T20:47:34.228Z,10.20
2018-03-11T20:50:07.149Z,10.20
2018-03-11T20:52:40.473Z,10.10
2018-03-11T20:55:13.384Z,10.10
2018-03-11T20:57:46.954Z,10.10
2018-03-11T21:00:19.859Z,10.00
2018-03-11T21:02:52.589Z,10.00
2018-03-11T21:05:25.014Z,10.00
2018-03-11T21:07:58.023Z,9.90
2018-03-11T21:10:31.291Z,9.80
2018-03-11T21:13:05.188Z,9.80
2018-03-11T21:15:39.203Z,9.70
2018-03-11T21:18:12.191Z,9.70
2018-03-11T21:20:44.918Z,9.70
2018-03-11T21:23:17.543Z,9.70
2018-03-11T21:25:50.058Z,9.60
2018-03-11T21:28:23.683Z,9.60
2018-03-11T21:30:56.926Z,9.50
2018-03-11T21:33:29.798Z,9.60
2018-03-11T21:36:03.218Z,9.50
2018-03-11T21:38:35.937Z,9.50
2018-03-11T21:41:12.684Z,9.50
2018-03-11T21:43:49.524Z,9.50
2018-03-11T21:46:25.535Z,9.50
2018-03-11T21:49:01.408Z,9.50
2018-03-11T21:51:35.453Z,9.40
2018-03-11T21:54:11.875Z,9.40
2018-03-11T21:56:44.942Z,9.40
2018-03-11T21:59:18.685Z,9.40
2018-03-11T22:01:51.334Z,9.30
2018-03-11T22:04:24.065Z,9.30
2018-03-11T22:06:56.657Z,9.30
2018-03-11T22:09:29.372Z,9.30
2018-03-11T22:12:02.108Z,9.30
2018-03-11T22:14:35.644Z,9.20
2018-03-11T22:17:08.798Z,9.20
2018-03-11T22:19:41.581Z,9.20
2018-03-11T22:22:14.304Z,9.20
2018-03-11T22:24:46.904Z,9.20
2018-03-11T22:27:20.458Z,9.20
2018-03-11T22:29:53.190Z,9.20
2018-03-11T22:32:25.937Z,9.20
2018-03-11T22:34:58.837Z,9.20
2018-03-11T22:37:31.417Z,9.20
2018-03-11T22:40:04.865Z,9.30
2018-03-11T22:42:38.207Z,9.20
2018-03-11T22:45:11.856Z,9.20
2018-03-11T22:47:45.149Z,9.20
2018-03-11T22:50:18.094Z,9.20
2018-03-11T22:52:50.672Z,9.10
2018-03-11T22:55:23.554Z,9.10
2018-03-11T22:57:58.651Z,9.10
2018-03-11T23:00:31.517Z,9.00
2018-03-11T23:03:04.084Z,9.10
2018-03-11T23:05:37.279Z,9.10
2018-03-11T23:08:10.370Z,9.10
2018-03-11T23:10:43.274Z,9.00
2018-03-11T23:13:16.100Z,9.00
2018-03-11T23:15:49.681Z,8.90
2018-03-11T23:18:22.416Z,8.90
2018-03-11T23:20:55.754Z,8.90
2018-03-11T23:23:28.499Z,8.90
2018-03-11T23:26:01.148Z,8.80
2018-03-11T23:28:33.859Z,8.80
2018-03-11T23:31:06.633Z,8.80
2018-03-11T23:33:39.387Z,8.70
2018-03-11T23:36:12.298Z,8.60
2018-03-11T23:38:44.979Z,8.60
2018-03-11T23:41:18.177Z,8.60
2018-03-11T23:43:50.698Z,8.60
2018-03-11T23:46:23.566Z,8.60
2018-03-11T23:48:56.083Z,8.50
2018-03-11T23:51:29.302Z,8.50
2018-03-11T23:54:01.749Z,8.50
2018-03-11T23:56:34.759Z,8.50
2018-03-11T23:59:07.535Z,8.50
